Terminal Aerodrome Forecast
Issued by NWS

Home | Current Version | Previous Version | Graphics & Text | Print | Product List | Glossary On
Versions: 1 2 3 4 5 6 7 8 9 10 11 12 13
000
FTUS43 KICT 252320
TAFHUT
TAF
KHUT 252320Z 2600/2624 17011KT P6SM SCT150
     FM260300 17011KT P6SM VCSH BKN100
     FM260800 18010KT P6SM SCT100
     FM261900 18014G20KT P6SM SKC=

USA.gov is the U.S. government's official web portal to all federal, state and local government web resources and services.